KLUG Airport (Ellington) Information

FAA: LUG - ICAO: KLUG

KLUG Airport Location

State Tennessee
County Marshall
City Lewisburg
KLUG Airport is 3 miles north of Lewisburg, TN.
Latitude 35-30-25.1070N
Longitude 086-48-13.9950W
Elevation 718ft

KLUG Airport METARs

METAR KLUG 060715Z AUTO 00000KT 10SM CLR 26/24 A2998 RMK A01
Altimeter 29.98"
Temperature 26.0°C (78.8°F)
Wind 0° at 0KT
Clouds Skies are clear.
Visibility 10.0mi
Time observed: 2022-07-06T07:15:00Z

KLUG Airport Details

Status Operational
Activation July 1961
Ownership Public
Usage Public
Chart ATLANTA
ATC on-site No
Beacon schedule sunset-sunrise
Beacon color clear green

KLUG Airport Contacts

Owner CITY OF LEWISBURG
Owner address 131 EAST CHURCH STREET, LEWISBURG, TN 37091
Owner phone 931-359-1544
Manager KEN HARR
Manager address 108 WOODLAWN, JOHNSON CITY, TN 37604
Manager phone 423-431-7772

KLUG Airport (Ellington) Radio Frequencies

KLUG (Airport) Radio Frequencies

UNICOM 122.8
Common traffic advisory frequency (CTAF) 122.8